Terminal Aerodrome Forecast
Issued by NWS Charleston, WV

Current Version | Previous Version | Graphics & Text | Print | Product List | Glossary On
Versions: 1 2 3 4 5 6 7 8 9 10 11 12 13 14 15 16 17 18 19 20 21 22 23 24 25
000
FTUS41 KRLX 261500 AAB
TAFEKN
TAF AMD
KEKN 261501Z 2615/2712 00000KT 1/4SM SN FG VV007
      TEMPO 2616/2620 2SM -SN OVC012
     FM262000 00000KT 2SM -SN OVC007
     FM262200 VRB03KT 2SM BR OVC014
     FM270000 27004KT 3SM BR OVC020=

USA.gov is the U.S. government's official web portal to all federal, state and local government web resources and services.